Wega — DBBC — position and weather

sailwx.info

Track history (hours):
 
Tides and Currents Weather Stations Pressure Air Temp Water Temp Dewpoint Dewpoint Depression Visibility Wind Speed Wind Dir Waves Ship Positions

Oceanographic research ship Wega (Germany)

Detailed information on ship capabilities available from University of Delaware's Ocean Information Center.

Last reported at 2019-Dec-11 10:58 UTC. Time now 2019-Dec-11 11:26 UTC.
Position N 53°43' E 008°17'.

Length 52.1 m; beam 11.4 m; draft 3.5 m.

Type: Law enforcement. MMSI: 211205970.

Date/timePositionNaut miles runAvg speedWind from/ knotsBaromVisibWave heightAir tempDewpointWater temp
2019-Dec-11 10:58N 53°43' E 008°17'1 1.2
2019-Dec-11 10:00N 53°42' E 008°18'1 1.1 200 / 161006.9 6.0 4.7 6.7
2019-Dec-11 09:00N 53°43' E 008°17'1503.5
2019-Dec-11 09:00N 53°42' E 008°18'0 0.0 200 / 161006.8 5.9 4.6 6.4
2019-Dec-11 08:00N 53°42' E 008°18'1 2.3 200 / 171007.0 5.7 4.6 6.3
2019-Dec-11 07:30N 53°43' E 008°17'1 2.2
2019-Dec-11 07:00N 53°42' E 008°18'1 1.2 190 / 211006.5 5.4 4.2 6.2
2019-Dec-11 06:00N 53°43' E 008°17'1719.4
2019-Dec-11 06:00N 53°42' E 008°18'0 0.0 200 / 211007.0 5.6 3.8 6.2
2019-Dec-11 05:00N 53°42' E 008°18'1 2.2 210 / 231006.9 6.0 3.4 6.2
2019-Dec-11 04:27N 53°43' E 008°17'1 2.7
2019-Dec-11 04:00N 53°42' E 008°18'1 1.7 210 / 251006.9 6.6 2.6 6.2
2019-Dec-11 03:18N 53°43' E 008°17'0 0.0
2019-Dec-11 03:00N 53°43' E 008°17'1545.0
2019-Dec-11 03:00N 53°42' E 008°18'0 0.0 200 / 271006.6 6.5 2.3 6.1
2019-Dec-11 02:00N 53°42' E 008°18'0 0.0 190 / 311006.7 6.4 1.4 6.2
2019-Dec-11 01:00N 53°42' E 008°18'0 0.0 190 / 311007.1 6.1 0.8 6.6
2019-Dec-11 00:00N 53°42' E 008°18'0 0.0 190 / 311007.9 6.1 0.7 6.5
2019-Dec-10 23:00N 53°42' E 008°18'139.3 180 / 291008.6 6.1 0.1 6.7
2019-Dec-10 22:58N 53°43' E 008°17'1 1.2
2019-Dec-10 22:00N 53°42' E 008°18'138.6 170 / 311009.3 5.8 0.2 6.4
2019-Dec-10 21:58N 53°43' E 008°17'1 1.2
2019-Dec-10 21:00N 53°42' E 008°18'1 2.3 170 / 271010.2 5.1 1.2 6.6
2019-Dec-10 20:30N 53°43' E 008°17'1 2.2
2019-Dec-10 20:00N 53°42' E 008°18'0 0.0 170 / 271011.7 4.6 1.4 6.3
2019-Dec-10 19:00N 53°42' E 008°18'1 2.3 160 / 291013.3 4.1 1.8 6.2
2019-Dec-10 18:27N 53°43' E 008°17'1 2.6
2019-Dec-10 18:00N 53°42' E 008°18'0 0.0 170 / 271014.7 3.7 1.6 6.2
2019-Dec-10 17:00N 53°42' E 008°18'1 1.9 170 / 251015.9 4.3 1.6 6.3
2019-Dec-10 16:30N 53°42' E 008°19'917.4
2019-Dec-10 16:00N 53°36' E 008°30'7 7.0 180 / 171018.4 4.7 1.4 6.4
2019-Dec-10 15:00N 53°30' E 008°36'1 2.9 170 / 41018.9 5.5 1.5 7.2
2019-Dec-10 14:29N 53°31' E 008°35'1 3.0
2019-Dec-10 14:00N 53°30' E 008°36'0 0.0 180 / 61020.1 5.9 1.5 7.3
2019-Dec-10 13:00N 53°30' E 008°36'1173.2 180 / 61021.0 5.7 0.8 7.2
2019-Dec-10 12:59N 53°31' E 008°35'0 0.0
2019-Dec-10 12:29N 53°31' E 008°35'1 3.0
2019-Dec-10 12:00N 53°30' E 008°36'1 2.9 190 / 61021.7 5.8 0.8 7.2
2019-Dec-10 11:29N 53°31' E 008°35'1 3.0
2019-Dec-10 11:00N 53°30' E 008°36'1 2.9 200 / 41022.2 4.9 1.0 7.2
2019-Dec-10 10:28N 53°31' E 008°35'1 3.1
2019-Dec-10 10:00N 53°30' E 008°36'1 3.1 1022.4 4.2 1.4 7.2
2019-Dec-10 09:31N 53°31' E 008°35'0 0.0
2019-Dec-10 09:00N 53°31' E 008°35'191.0
2019-Dec-10 09:00N 53°30' E 008°36'0 0.0 190 / 41021.9 3.6 0.9 7.2
2019-Dec-10 08:00N 53°30' E 008°36'0 0.0 220 / 41021.8 4.4 1.1 7.2
2019-Dec-10 07:00N 53°30' E 008°36'1 3.0 260 / 81021.0 4.2 0.9 7.2
2019-Dec-10 06:30N 53°31' E 008°35'1 2.9
2019-Dec-10 06:00N 53°30' E 008°36'0 0.0 250 / 61020.5 4.6 1.3 7.2
2019-Dec-10 05:00N 53°30' E 008°36'1 2.9 290 / 141019.8 6.4 0.9 7.2
2019-Dec-10 04:28N 53°31' E 008°35'1 3.1
2019-Dec-10 04:00N 53°30' E 008°36'1 2.9 300 / 81019.1 6.0 1.8 7.2
2019-Dec-10 03:29N 53°31' E 008°35'0 0.0
2019-Dec-10 03:00N 53°31' E 008°35'0 0.0
2019-Dec-10 02:00N 53°31' E 008°35'1223.8
2019-Dec-10 02:00N 53°30' E 008°36'0 0.0 310 / 161017.0 6.4 2.0 7.1
2019-Dec-10 01:00N 53°30' E 008°36'0 0.0 320 / 171015.8 6.0 1.4 7.1
2019-Dec-10 00:00N 53°30' E 008°36'0 0.0 300 / 161014.5 6.4 2.4 7.0
2019-Dec-09 23:00N 53°30' E 008°36'0 0.0 310 / 191012.9 6.1 2.1 7.0
2019-Dec-09 22:00N 53°30' E 008°36'1137.7 310 / 211011.6 6.9 1.6 7.1
2019-Dec-09 21:59N 53°31' E 008°35'1 1.5
2019-Dec-09 21:00N 53°30' E 008°36'1137.7 320 / 171010.2 6.7-0.1 7.1
2019-Dec-09 20:59N 53°31' E 008°35'0 0.0
2019-Dec-09 20:29N 53°31' E 008°35'1 3.1
2019-Dec-09 20:00N 53°30' E 008°36'1134.3 310 / 171008.6 6.7 0.6 7.1
2019-Dec-09 19:59N 53°31' E 008°35'1 1.5
2019-Dec-09 19:00N 53°30' E 008°36'1 1.5 310 / 191006.7 7.5 1.4 7.2
2019-Dec-09 18:00N 53°31' E 008°35'1145.2
2019-Dec-09 18:00N 53°30' E 008°36'0 0.0 320 / 121005.0 6.9 3.1 7.0
2019-Dec-09 17:00N 53°30' E 008°36'0 0.0 320 / 141003.0 7.7 2.7 7.2
2019-Dec-09 16:00N 53°30' E 008°36'0 0.0 330 / 101000.9 6.9 3.6 7.4
2019-Dec-09 15:00N 53°30' E 008°36'0 0.0 270 / 10998.9 6.8 4.8 7.3
2019-Dec-09 14:00N 53°30' E 008°36'0 0.0 250 / 8997.2 7.0 4.3 7.6
2019-Dec-09 13:00N 53°30' E 008°36'0 0.0 250 / 8996.1 7.1 4.0 7.6
2019-Dec-09 12:00N 53°30' E 008°36'0 0.0 220 / 6995.1 7.2 4.0 7.6
2019-Dec-09 11:00N 53°30' E 008°36'0 0.0 210 / 4994.6 7.2 4.0 7.6
2019-Dec-09 10:00N 53°30' E 008°36'0 0.0 200 / 6994.2 7.1 3.9 7.5
2019-Dec-09 09:00N 53°30' E 008°36'0 0.0 200 / 4993.8 7.0 3.7 7.6
2019-Dec-09 08:00N 53°30' E 008°36'1 1.5 200 / 4993.4 6.9 3.6 7.6
2019-Dec-09 07:00N 53°31' E 008°35'11784.3
2019-Dec-09 07:00N 53°30' E 008°36'0 0.0 200 / 8992.7 6.2 3.5 7.5
2019-Dec-09 06:00N 53°30' E 008°36'0 0.0 190 / 8992.5 5.9 3.2 7.5
2019-Dec-09 05:00N 53°30' E 008°36'1 2.9 200 / 8992.4 6.3 3.3 7.5
2019-Dec-09 04:28N 53°31' E 008°35'1 3.1
2019-Dec-09 04:00N 53°30' E 008°36'1 2.8 210 / 4992.4 6.3 3.4 7.5
2019-Dec-09 03:28N 53°31' E 008°35'1 3.2
2019-Dec-09 03:00N 53°30' E 008°36'0 0.0 200 / 6992.5 5.8 3.5 7.5
2019-Dec-09 02:00N 53°30' E 008°36'0 0.0 200 / 8992.6 5.9 3.4 7.4
2019-Dec-09 01:00N 53°30' E 008°36'0 0.0 210 / 6992.5 5.8 3.6 7.4
2019-Dec-09 00:00N 53°30' E 008°36'0 0.0 220 / 12992.4 6.5 3.0 7.3
2019-Dec-08 23:00N 53°30' E 008°36'1 3.1 210 / 6992.3 6.4 3.5 7.3
2019-Dec-08 22:31N 53°31' E 008°35'1 2.9
2019-Dec-08 22:00N 53°30' E 008°36'0 0.0 220 / 10992.5 7.1 3.8 7.3
2019-Dec-08 21:00N 53°30' E 008°36'1 2.9 220 / 10993.0 7.3 4.4 7.3
2019-Dec-08 20:29N 53°31' E 008°35'0 0.0
2019-Dec-08 20:00N 53°31' E 008°35'1488.2
2019-Dec-08 20:00N 53°30' E 008°36'0 0.0 210 / 8993.3 7.5 4.1 7.4
2019-Dec-08 19:00N 53°30' E 008°36'1 1.5 210 / 8993.8 7.1 4.4 7.2
2019-Dec-08 18:00N 53°31' E 008°35'1383.7
2019-Dec-08 18:00N 53°30' E 008°36'0 0.0 230 / 16994.2 8.0 4.6 7.2
2019-Dec-08 17:00N 53°30' E 008°36'1134.3 230 / 12994.2 8.6 5.3 7.2
2019-Dec-08 16:59N 53°31' E 008°35'1 1.5
2019-Dec-08 16:00N 53°30' E 008°36'0 0.0 250 / 14994.2 9.4 5.4 7.1
2019-Dec-08 15:00N 53°30' E 008°36'0 0.0 250 / 17994.0 9.0 5.9 7.3
2019-Dec-08 14:00N 53°30' E 008°36'1 1.5 240 / 16993.9 10.0 6.8 7.3
2019-Dec-08 13:00N 53°31' E 008°35'1214.8
2019-Dec-08 13:00N 53°30' E 008°36'0 0.0 240 / 17993.9 10.0 7.7 7.3
2019-Dec-08 12:00N 53°30' E 008°36'1 1.5 220 / 14993.9 9.8 8.0 7.4
2019-Dec-08 11:00N 53°31' E 008°35'1206.5
2019-Dec-08 11:00N 53°30' E 008°36'1 1.5 210 / 10994.4 9.2 7.9 7.3
2019-Dec-08 10:00N 53°31' E 008°35'1206.6
2019-Dec-08 10:00N 53°30' E 008°36'1 1.5 210 / 8995.2 9.0 7.3 7.3
2019-Dec-08 09:00N 53°31' E 008°35'1206.5
2019-Dec-08 09:00N 53°30' E 008°36'0 0.0 200 / 12995.8 8.6 6.7 7.3
2019-Dec-08 08:00N 53°30' E 008°36'0 0.0 200 / 16996.1 8.7 6.2 7.3
2019-Dec-08 07:00N 53°30' E 008°36'0 0.0 210 / 8997.7 9.1 5.0 7.2
2019-Dec-08 06:00N 53°30' E 008°36'0 0.0 210 / 10998.7 9.0 4.9 7.3
2019-Dec-08 05:00N 53°30' E 008°36'0 0.0 200 / 8999.6 9.0 5.3 7.3
2019-Dec-08 04:00N 53°30' E 008°36'1 2.9 210 / 81001.7 9.2 5.5 7.4
2019-Dec-08 03:29N 53°31' E 008°35'1 3.1
2019-Dec-08 03:00N 53°30' E 008°36'124.0 190 / 101003.0 8.7 5.5 7.5
2019-Dec-08 02:56N 53°31' E 008°35'0 0.0
2019-Dec-08 02:29N 53°31' E 008°35'1 3.1
2019-Dec-08 02:00N 53°30' E 008°36'1 3.1 190 / 121004.2 8.2 4.8 7.5
2019-Dec-08 01:30N 53°31' E 008°35'1 2.9
2019-Dec-08 01:00N 53°30' E 008°36'0 0.0 200 / 81005.7 8.2 4.7 7.6
2019-Dec-08 00:00N 53°30' E 008°36'1114.3 190 / 61007.0 8.3 5.2 7.4
2019-Dec-07 23:59N 53°31' E 008°35'0 0.0
2019-Dec-07 23:29N 53°31' E 008°35'1 3.1
2019-Dec-07 23:00N 53°30' E 008°36'0 0.0 210 / 61008.0 8.4 5.7 7.5
2019-Dec-07 22:00N 53°30' E 008°36'1 2.7 210 / 61008.6 8.6 6.4 7.3
2019-Dec-07 21:26N 53°31' E 008°35'1 3.4
2019-Dec-07 21:00N 53°30' E 008°36'1 2.9 230 / 101008.9 8.5 6.3 7.5
2019-Dec-07 20:29N 53°31' E 008°35'1 3.1
2019-Dec-07 20:00N 53°30' E 008°36'0 0.0 230 / 101009.3 8.6 6.9 7.5
2019-Dec-07 19:00N 53°30' E 008°36'0 0.0 230 / 101009.2 8.6 6.5 7.5
2019-Dec-07 18:00N 53°30' E 008°36'0 0.0 240 / 121009.5 8.6 6.7 7.4
2019-Dec-07 17:00N 53°30' E 008°36'0 0.0 250 / 121009.3 8.7 6.9 7.4
2019-Dec-07 16:00N 53°30' E 008°36'1 2.7 250 / 81008.9 8.5 6.8 7.5
2019-Dec-07 15:26N 53°31' E 008°35'1 3.4
2019-Dec-07 15:00N 53°30' E 008°36'1 2.9 250 / 81008.4 8.8 6.8 7.4
2019-Dec-07 14:29N 53°31' E 008°35'1 3.1
2019-Dec-07 14:00N 53°30' E 008°36'1109.6 260 / 121007.8 9.1 6.2 7.4
2019-Dec-07 13:59N 53°31' E 008°35'1 1.5
2019-Dec-07 13:00N 53°30' E 008°36'0 0.0 270 / 141007.7 9.1 6.6 7.2
2019-Dec-07 12:00N 53°30' E 008°36'0 0.0 260 / 141006.9 9.0 6.6 7.3
2019-Dec-07 11:00N 53°30' E 008°36'1 2.9 260 / 141006.5 8.8 7.0 7.3
2019-Dec-07 10:29N 53°31' E 008°35'1 3.1
2019-Dec-07 10:00N 53°30' E 008°36'1 2.8 260 / 121006.4 8.8 7.0 7.3
2019-Dec-07 09:28N 53°31' E 008°35'1 3.1
2019-Dec-07 09:00N 53°30' E 008°36'1 2.8 260 / 141005.7 8.5 7.0 7.3
2019-Dec-07 08:28N 53°31' E 008°35'1 3.1
2019-Dec-07 08:00N 53°30' E 008°36'1 1.5 250 / 121004.8 8.8 7.0 7.3
2019-Dec-07 07:00N 53°31' E 008°35'1141.3
2019-Dec-07 07:00N 53°30' E 008°36'1 2.9 260 / 121003.7 8.6 7.1 7.2
2019-Dec-07 06:29N 53°31' E 008°35'1 3.0
2019-Dec-07 06:00N 53°30' E 008°36'0 0.0 260 / 121002.7 8.7 6.9 7.1
2019-Dec-07 05:00N 53°30' E 008°36'1 2.9 250 / 141001.7 8.5 6.8 7.2
2019-Dec-07 04:29N 53°31' E 008°35'1 3.0
2019-Dec-07 04:00N 53°30' E 008°36'0 0.0 260 / 141000.8 8.6 7.0 7.2
2019-Dec-07 03:00N 53°30' E 008°36'1199.0 250 / 12999.6 8.6 7.4 7.2
2019-Dec-07 02:59N 53°31' E 008°35'1 1.5
2019-Dec-07 02:00N 53°30' E 008°36'0 0.0 240 / 12998.9 8.0 7.0 7.2
2019-Dec-07 01:00N 53°30' E 008°36'1162.8 230 / 12998.4 8.0 6.8 7.3
2019-Dec-07 00:59N 53°31' E 008°35'1 1.5
2019-Dec-07 00:00N 53°30' E 008°36'1153.5 210 / 8998.4 8.0 6.7 7.3
2019-Dec-06 23:59N 53°31' E 008°35'0 0.0
2019-Dec-06 23:29N 53°31' E 008°35'1 3.0
2019-Dec-06 23:00N 53°30' E 008°36'0 0.0 210 / 8998.4 8.1 6.8 7.3
2019-Dec-06 22:00N 53°30' E 008°36'1 2.9 200 / 10998.8 7.9 6.6 7.4
2019-Dec-06 21:29N 53°31' E 008°35'1 3.0
2019-Dec-06 21:00N 53°30' E 008°36'1162.8 190 / 8999.1 7.7 6.6 7.4
2019-Dec-06 20:59N 53°31' E 008°35'1 1.5
2019-Dec-06 20:00N 53°30' E 008°36'1167.8 200 / 8999.6 7.6 6.4 7.5
2019-Dec-06 19:59N 53°31' E 008°35'0 0.0
2019-Dec-06 19:29N 53°31' E 008°35'1 3.0
2019-Dec-06 19:00N 53°30' E 008°36'0 0.0 200 / 61000.1 7.2 6.2 7.4
2019-Dec-06 18:00N 53°30' E 008°36'1158.0 200 / 81000.5 6.9 5.9 7.4
2019-Dec-06 17:59N 53°31' E 008°35'1 1.5
2019-Dec-06 17:00N 53°30' E 008°36'1162.8 190 / 121000.8 6.2 5.4 7.5
2019-Dec-06 16:59N 53°31' E 008°35'1 1.5
2019-Dec-06 16:00N 53°30' E 008°36'1162.8 190 / 121001.4 5.9 5.1 7.4
2019-Dec-06 15:59N 53°31' E 008°35'1 1.5
2019-Dec-06 15:00N 53°30' E 008°36'1 2.9 200 / 81002.0 5.9 5.0 7.5
2019-Dec-06 14:29N 53°31' E 008°35'1 3.0
2019-Dec-06 14:00N 53°30' E 008°36'1158.0 190 / 141002.5 5.7 4.8 7.4
2019-Dec-06 13:59N 53°31' E 008°35'1 1.5
2019-Dec-06 13:00N 53°30' E 008°36'1157.9 200 / 121003.4 5.8 4.8 7.2
2019-Dec-06 12:59N 53°31' E 008°35'0 0.0
2019-Dec-06 12:29N 53°31' E 008°35'1 3.0
2019-Dec-06 12:00N 53°30' E 008°36'1158.0 200 / 121004.5 5.6 4.5 7.2
2019-Dec-06 11:59N 53°31' E 008°35'1 1.5
2019-Dec-06 11:00N 53°30' E 008°36'1167.9 200 / 101005.3 5.6 4.3 7.4
2019-Dec-06 10:59N 53°31' E 008°35'1 1.5
2019-Dec-06 10:00N 53°30' E 008°36'0 0.0 210 / 61006.2 5.9 4.4 7.4
2019-Dec-06 09:00N 53°30' E 008°36'0 0.0 210 / 61006.1 5.5 4.6 7.3
2019-Dec-06 08:00N 53°30' E 008°36'0 0.0 220 / 81006.5 5.5 4.4 7.3
2019-Dec-06 07:00N 53°30' E 008°36'1158.0 210 / 101006.6 5.5 4.4 7.3
2019-Dec-06 06:59N 53°31' E 008°35'0 0.0
2019-Dec-06 06:29N 53°31' E 008°35'1 3.0
2019-Dec-06 06:00N 53°30' E 008°36'0 0.0 210 / 101006.8 5.6 4.3 7.3
2019-Dec-06 05:00N 53°30' E 008°36'1 3.1 210 / 101006.9 5.8 4.3 7.3
2019-Dec-06 04:30N 53°31' E 008°35'1 2.9
2019-Dec-06 04:00N 53°30' E 008°36'0 0.0 210 / 101007.0 5.7 4.0 7.3
2019-Dec-06 03:00N 53°30' E 008°36'0 0.0 210 / 81007.3 5.6 3.7 7.4
2019-Dec-06 02:00N 53°30' E 008°36'147.1 200 / 81007.9 5.0 3.1 7.5
2019-Dec-06 01:58N 53°31' E 008°35'0 0.0
2019-Dec-06 01:28N 53°31' E 008°35'1 3.2
2019-Dec-06 01:00N 53°30' E 008°36'0 0.0 200 / 101008.1 4.5 2.8 7.4
2019-Dec-06 00:00N 53°30' E 008°36'0 0.0 190 / 141009.2 4.0 2.3 7.5
2019-Dec-05 23:00N 53°30' E 008°36'1 2.8 200 / 101010.3 3.7 2.0 7.5
2019-Dec-05 22:28N 53°31' E 008°35'1 3.2
2019-Dec-05 22:00N 53°30' E 008°36'0 0.0 190 / 141011.4 3.2 2.0 7.6
2019-Dec-05 21:00N 53°30' E 008°36'0 0.0 180 / 121012.3 2.7 1.9 7.5
2019-Dec-05 20:00N 53°30' E 008°36'1 3.0 180 / 121013.4 2.5 1.5 7.7
2019-Dec-05 19:30N 53°31' E 008°35'1 2.9
2019-Dec-05 19:00N 53°30' E 008°36'1 2.8 180 / 121014.1 2.5 1.4 7.7
2019-Dec-05 18:28N 53°31' E 008°35'1 3.2
2019-Dec-05 18:00N 53°30' E 008°36'1 3.1 180 / 101014.7 2.4 1.5 7.7
2019-Dec-05 17:30N 53°31' E 008°35'1 2.9
2019-Dec-05 17:00N 53°30' E 008°36'1 2.8 190 / 101015.3 2.4 1.8 7.8
2019-Dec-05 16:28N 53°31' E 008°35'1 3.2
2019-Dec-05 16:00N 53°30' E 008°36'1 2.8 190 / 81016.0 2.2 1.6 7.9
2019-Dec-05 15:28N 53°31' E 008°35'1 3.2
2019-Dec-05 15:00N 53°30' E 008°36'0 0.0 210 / 61016.6 2.8 1.8 7.8
2019-Dec-05 14:00N 53°30' E 008°36'1 3.0 200 / 41016.7 4.3 2.2 8.0
2019-Dec-05 13:30N 53°31' E 008°35'0 0.0
2019-Dec-05 13:00N 53°31' E 008°35'11342.3
2019-Dec-05 13:00N 53°30' E 008°36'0 0.0 180 / 81017.4 4.2 2.1 8.0
2019-Dec-05 12:00N 53°30' E 008°36'0 0.0 170 / 41017.8 3.6 1.3 7.9
2019-Dec-05 11:00N 53°30' E 008°36'0 0.0 180 / 81018.1 2.5 0.6 7.8
2019-Dec-05 10:00N 53°30' E 008°36'1 1.5 1018.4 1.7 0.4 7.9
2019-Dec-05 09:00N 53°31' E 008°35'1767.3
2019-Dec-05 09:00N 53°30' E 008°36'0 0.0 170 / 61018.1 0.5-0.3 7.8
2019-Dec-05 08:00N 53°30' E 008°36'0 0.0 170 / 41018.8 0.5-0.2 7.8
2019-Dec-05 07:00N 53°30' E 008°36'1 1.5 1018.7 0.8 0.1 7.7
2019-Dec-05 06:00N 53°31' E 008°35'1895.2
2019-Dec-05 06:00N 53°30' E 008°36'1 3.0 180 / 41019.1 1.0 0.2 7.7
2019-Dec-05 05:30N 53°31' E 008°35'0 0.0
2019-Dec-05 05:00N 53°31' E 008°35'1895.4
2019-Dec-05 05:00N 53°30' E 008°36'0 0.0 1018.9 1.0 0.3 7.8
2019-Dec-05 04:00N 53°30' E 008°36'0 0.0 180 / 41018.8 1.1 0.3 7.7
2019-Dec-05 03:00N 53°30' E 008°36'0 0.0 170 / 41018.7 1.8 1.0 7.7
2019-Dec-05 02:00N 53°30' E 008°36'1124.9 160 / 41019.5 1.7 0.8 7.7
2019-Dec-05 01:59N 53°31' E 008°35'1 1.5
2019-Dec-05 01:00N 53°30' E 008°36'1127.9 160 / 41019.5 1.7 0.7 7.7
2019-Dec-05 00:59N 53°31' E 008°35'1 1.5
2019-Dec-05 00:00N 53°30' E 008°36'0 0.0 160 / 41020.0 2.1 1.0 7.3
2019-Dec-04 23:00N 53°30' E 008°36'0 0.0 150 / 41020.3 2.1 1.0 7.4
2019-Dec-04 22:00N 53°30' E 008°36'0 0.0 170 / 41020.7 2.4 1.1 7.5
2019-Dec-04 21:00N 53°30' E 008°36'0 0.0 150 / 41020.8 2.9 1.5 7.4
2019-Dec-04 20:00N 53°30' E 008°36'0 0.0 160 / 41021.0 3.4 2.0 7.4
2019-Dec-04 19:00N 53°30' E 008°36'150.2 160 / 41020.8 4.0 2.6 7.9
2019-Dec-04 18:58N 53°31' E 008°35'1 1.5
2019-Dec-04 18:00N 53°30' E 008°36'0 0.0 170 / 41021.0 4.5 3.0 7.6
2019-Dec-04 17:00N 53°30' E 008°36'150.7 180 / 61021.0 5.3 3.7 7.3
2019-Dec-04 16:58N 53°31' E 008°35'1 1.5
2019-Dec-04 16:00N 53°30' E 008°36'0 0.0 190 / 61021.0 6.2 4.5 6.9
2019-Dec-04 15:00N 53°30' E 008°36'0 0.0 210 / 81021.4 6.2 4.3 6.6
2019-Dec-04 14:00N 53°30' E 008°36'1414.0 210 / 81021.1 6.8 4.6 6.7
2019-Dec-04 13:00N 53°42' E 008°24'4 3.6 220 / 101021.2 5.4 4.5 6.4
2019-Dec-04 12:00N 53°43' E 008°18'4335.6
2019-Dec-04 12:00N 53°42' E 008°12'9 9.3 230 / 161021.5 4.3 4.0 6.6
2019-Dec-04 11:00N 53°48' E 008°00'9 9.3 220 / 161021.6 4.7 4.2 8.7
2019-Dec-04 10:00N 53°54' E 007°48'1 2.3 230 / 171021.3 5.8 5.3 9.6
2019-Dec-04 09:30N 53°53' E 007°46'1018.7
2019-Dec-04 09:00N 53°54' E 007°30'1110.6 230 / 171021.4 6.1 5.5 9.5
2019-Dec-04 08:00N 53°54' E 007°12'7 7.1 230 / 171020.8 6.4 5.8 9.1
2019-Dec-04 07:00N 53°54' E 007°00'3 5.4 230 / 161020.8 6.8 6.0 8.7
2019-Dec-04 06:30N 53°51' E 007°00'4 8.4
2019-Dec-04 06:00N 53°54' E 007°06'6 6.0 230 / 171020.3 7.1 6.1 9.1
2019-Dec-04 05:00N 54°00' E 007°06'0 0.0 220 / 191020.3 7.1 6.1 9.5
2019-Dec-04 04:00N 54°00' E 007°06'0 0.0 230 / 191020.2 7.5 6.5 9.5
2019-Dec-04 03:00N 54°00' E 007°06'0 0.0 220 / 171020.6 7.6 6.4 9.5
2019-Dec-04 02:00N 54°00' E 007°06'1 5.5 220 / 191021.3 7.6 6.4 9.3
2019-Dec-04 01:48N 53°59' E 007°08'1 1.3
2019-Dec-04 01:00N 54°00' E 007°06'0 0.0 230 / 191021.6 7.7 6.6 9.4
2019-Dec-04 00:00N 54°00' E 007°06'0 0.0 220 / 211021.7 7.5 6.5 9.5
2019-Dec-03 23:00N 54°00' E 007°06'0 0.0 220 / 211022.0 7.4 6.3 9.4
2019-Dec-03 22:00N 54°00' E 007°06'0 0.0 220 / 231022.1 7.2 5.7 9.5
2019-Dec-03 21:00N 54°00' E 007°06'7 7.0 220 / 211022.5 7.6 6.0 9.5
2019-Dec-03 20:00N 53°54' E 007°12'2 5.4 230 / 211023.0 7.6 5.8 9.4
2019-Dec-03 19:40N 53°54' E 007°15'912.9
2019-Dec-03 19:00N 53°54' E 007°00'7 7.1 220 / 171023.3 7.3 5.7 8.8
2019-Dec-03 18:00N 53°54' E 007°12'4 3.5 230 / 211022.9 7.9 6.1 9.0
2019-Dec-03 17:00N 53°54' E 007°06'429.2 230 / 171023.3 8.0 6.3 9.0
2019-Dec-03 16:52N 53°53' E 007°12'4 4.1
2019-Dec-03 16:00N 53°54' E 007°06'4 3.5 230 / 191023.3 8.2 6.4 8.9
2019-Dec-03 15:00N 53°54' E 007°12'235.0 230 / 211023.4 7.9 6.2 9.3
2019-Dec-03 14:57N 53°53' E 007°11'7 6.8
2019-Dec-03 14:00N 53°54' E 007°00'3 6.4 230 / 211023.8 7.6 5.9 8.9
2019-Dec-03 13:30N 53°51' E 007°01'4 7.9
2019-Dec-03 13:00N 53°54' E 007°06'4 3.5 230 / 211024.1 7.4 5.5 9.1
2019-Dec-03 12:00N 53°54' E 007°12'2 4.2 230 / 211024.7 7.5 5.7 9.3
2019-Dec-03 11:29N 53°52' E 007°10'714.9
2019-Dec-03 11:00N 53°48' E 007°00'9 9.3 220 / 211025.0 7.1 5.6 8.8
2019-Dec-03 10:00N 53°54' E 007°12'2 2.2 230 / 211025.1 7.4 5.5 9.3
2019-Dec-03 09:07N 53°52' E 007°12'1 8.3
2019-Dec-03 09:00N 53°52' E 007°10'3201.1
2019-Dec-03 09:00N 53°54' E 007°06'3 7.2 240 / 161025.8 8.0 6.1 8.8
2019-Dec-03 08:30N 53°51' E 007°03'3 6.8
2019-Dec-03 08:00N 53°54' E 007°06'3 5.7 240 / 161025.8 8.4 6.5 9.0
2019-Dec-03 07:30N 53°51' E 007°08'612.5
2019-Dec-03 07:00N 53°54' E 007°18'1212.2 240 / 161025.6 8.8 6.2 9.3
2019-Dec-03 06:00N 53°48' E 007°36'2 4.5 260 / 141025.5 8.4 6.4 8.6
2019-Dec-03 05:30N 53°50' E 007°38'3 6.2
2019-Dec-03 05:00N 53°48' E 007°42'0 0.0 250 / 101025.8 8.1 7.0 8.4
2019-Dec-03 04:00N 53°48' E 007°42'0 0.0 230 / 121025.7 7.6 6.2 8.4
2019-Dec-03 03:00N 53°48' E 007°42'0 0.0 240 / 121025.5 7.6 6.4 8.4
2019-Dec-03 02:00N 53°48' E 007°42'0 0.0 270 / 101025.7 8.0 6.2 8.5
2019-Dec-03 01:00N 53°48' E 007°42'0 0.0 290 / 101025.7 8.8 5.6 8.4
2019-Dec-03 00:00N 53°48' E 007°42'0 0.0 300 / 121025.6 8.7 5.2 7.8
2019-Dec-02 23:00N 53°48' E 007°42'0 0.0 300 / 141025.4 8.8 4.8 8.1
2019-Dec-02 22:00N 53°48' E 007°42'0 0.0 300 / 141025.3 8.6 4.5 7.4
2019-Dec-02 21:00N 53°48' E 007°42'9 9.3 300 / 101025.1 8.6 4.6 7.4
2019-Dec-02 20:00N 53°54' E 007°54'2 4.5 330 / 161024.5 8.8 3.7 9.8
2019-Dec-02 19:30N 53°56' E 007°56'611.2
2019-Dec-02 19:00N 54°00' E 008°02'6430.8
2019-Dec-02 19:00N 54°06' E 008°06'1110.6 360 / 121024.1 7.9 4.3 9.0
2019-Dec-02 18:00N 54°06' E 008°24'1414.1 350 / 101023.3 6.9 3.3 7.7
2019-Dec-02 17:00N 54°06' E 008°48'4 3.5 330 / 101022.5 6.1 3.3 6.5
2019-Dec-02 16:00N 54°06' E 008°54'0 0.0 320 / 121022.4 6.0 2.6 6.5
2019-Dec-02 15:00N 54°06' E 008°54'0 0.0 320 / 101021.7 6.1 2.8 6.4
2019-Dec-02 14:00N 54°06' E 008°54'0 0.0 310 / 161021.3 6.2 3.0 6.1
2019-Dec-02 13:00N 54°06' E 008°54'0 0.0 320 / 141021.2 6.8 3.0 6.1
2019-Dec-02 12:00N 54°06' E 008°54'0 0.0 300 / 171021.1 6.0 2.5 5.9
2019-Dec-02 11:00N 54°06' E 008°54'0 0.0 310 / 81021.0 6.1 3.4 5.9
2019-Dec-02 10:00N 54°06' E 008°54'0 0.0 310 / 121020.6 5.8 3.6 5.8
2019-Dec-02 09:00N 54°06' E 008°54'0 0.0 300 / 121019.9 6.0 2.9 5.7
2019-Dec-02 08:00N 54°06' E 008°54'0 0.0 300 / 101019.3 5.8 3.6 5.9
2019-Dec-02 07:00N 54°06' E 008°54'0 0.0 290 / 121019.0 5.9 3.2 6.1
2019-Dec-02 06:00N 54°06' E 008°54'0 0.0 320 / 101018.9 6.2 3.1 6.3
2019-Dec-02 05:00N 54°06' E 008°54'0 0.0 300 / 121018.8 6.4 3.9 6.5
2019-Dec-02 04:00N 54°06' E 008°54'0 0.0 280 / 121018.8 6.4 3.7 6.5
2019-Dec-02 03:00N 54°06' E 008°54'0 0.0 270 / 121018.9 6.1 3.0 6.5
2019-Dec-02 02:00N 54°06' E 008°54'0 0.0 280 / 121019.0 6.0 3.8 6.4
2019-Dec-02 01:00N 54°06' E 008°54'0 0.0 260 / 101019.3 5.4 2.8 6.4
2019-Dec-02 00:00N 54°06' E 008°54'0 0.0 220 / 101019.5 5.0 2.6 6.2
2019-Dec-01 23:00N 54°06' E 008°54'0 0.0 260 / 101020.1 5.4 2.4 6.2
2019-Dec-01 22:00N 54°06' E 008°54'0 0.0 230 / 61020.4 5.5 3.0 6.3
2019-Dec-01 21:00N 54°06' E 008°54'0 0.0 280 / 81020.6 5.7 2.9 6.3
2019-Dec-01 20:00N 54°06' E 008°54'0 0.0 250 / 61020.4 5.4 3.1 6.1
2019-Dec-01 19:00N 54°06' E 008°54'0 0.0 270 / 81020.5 5.8 3.5 6.2
2019-Dec-01 18:00N 54°06' E 008°54'0 0.0 260 / 81020.6 6.0 2.8 6.5
2019-Dec-01 17:00N 54°06' E 008°54'7 7.0 290 / 81020.5 6.1 3.2 6.5
2019-Dec-01 16:00N 54°06' E 008°42'0 0.0 250 / 81021.0 6.3 2.5 7.0
2019-Dec-01 15:00N 54°06' E 008°42'0 0.0 260 / 81021.0 6.6 2.5 7.1
2019-Dec-01 14:00N 54°06' E 008°42'7 7.0 250 / 101021.2 6.4 3.0 7.1
2019-Dec-01 13:00N 54°06' E 008°54'0 0.0 240 / 81021.3 7.2 2.3 6.9
2019-Dec-01 12:00N 54°06' E 008°54'0 0.0 1021.6 5.5 4.3 6.9
2019-Dec-01 11:00N 54°06' E 008°54'   110 / 41022.2 4.1 2.9 7.2
Track history (hours):
 
Tides and Currents Weather Stations Pressure Air Temp Water Temp Dewpoint Dewpoint Depression Visibility Wind Speed Wind Dir Waves Ship Positions

Oceanographic research ship Wega (Germany)

Detailed information on ship capabilities available from University of Delaware's Ocean Information Center.

Last reported at 2019-Dec-11 10:58 UTC. Time now 2019-Dec-11 11:26 UTC.
Position N 53°43' E 008°17'.

Length 52.1 m; beam 11.4 m; draft 3.5 m.

Type: Law enforcement. MMSI: 211205970.

Date/timePositionNaut miles runAvg speedWind from/ knotsBaromVisibWave heightAir tempDewpointWater temp
2019-Dec-11 10:58N 53°43' E 008°17'1 1.2
2019-Dec-11 10:00N 53°42' E 008°18'1 1.1 200 / 161006.9 6.0 4.7 6.7
2019-Dec-11 09:00N 53°43' E 008°17'1503.5
2019-Dec-11 09:00N 53°42' E 008°18'0 0.0 200 / 161006.8 5.9 4.6 6.4
2019-Dec-11 08:00N 53°42' E 008°18'1 2.3 200 / 171007.0 5.7 4.6 6.3
2019-Dec-11 07:30N 53°43' E 008°17'1 2.2
2019-Dec-11 07:00N 53°42' E 008°18'1 1.2 190 / 211006.5 5.4 4.2 6.2
2019-Dec-11 06:00N 53°43' E 008°17'1719.4
2019-Dec-11 06:00N 53°42' E 008°18'0 0.0 200 / 211007.0 5.6 3.8 6.2
2019-Dec-11 05:00N 53°42' E 008°18'1 2.2 210 / 231006.9 6.0 3.4 6.2
2019-Dec-11 04:27N 53°43' E 008°17'1 2.7
2019-Dec-11 04:00N 53°42' E 008°18'1 1.7 210 / 251006.9 6.6 2.6 6.2
2019-Dec-11 03:18N 53°43' E 008°17'0 0.0
2019-Dec-11 03:00N 53°43' E 008°17'1545.0
2019-Dec-11 03:00N 53°42' E 008°18'0 0.0 200 / 271006.6 6.5 2.3 6.1
2019-Dec-11 02:00N 53°42' E 008°18'0 0.0 190 / 311006.7 6.4 1.4 6.2
2019-Dec-11 01:00N 53°42' E 008°18'0 0.0 190 / 311007.1 6.1 0.8 6.6
2019-Dec-11 00:00N 53°42' E 008°18'0 0.0 190 / 311007.9 6.1 0.7 6.5
2019-Dec-10 23:00N 53°42' E 008°18'139.3 180 / 291008.6 6.1 0.1 6.7
2019-Dec-10 22:58N 53°43' E 008°17'1 1.2
2019-Dec-10 22:00N 53°42' E 008°18'138.6 170 / 311009.3 5.8 0.2 6.4
2019-Dec-10 21:58N 53°43' E 008°17'1 1.2
2019-Dec-10 21:00N 53°42' E 008°18'1 2.3 170 / 271010.2 5.1 1.2 6.6
2019-Dec-10 20:30N 53°43' E 008°17'1 2.2
2019-Dec-10 20:00N 53°42' E 008°18'0 0.0 170 / 271011.7 4.6 1.4 6.3
2019-Dec-10 19:00N 53°42' E 008°18'1 2.3 160 / 291013.3 4.1 1.8 6.2
2019-Dec-10 18:27N 53°43' E 008°17'1 2.6
2019-Dec-10 18:00N 53°42' E 008°18'0 0.0 170 / 271014.7 3.7 1.6 6.2
2019-Dec-10 17:00N 53°42' E 008°18'1 1.9 170 / 251015.9 4.3 1.6 6.3
2019-Dec-10 16:30N 53°42' E 008°19'917.4
2019-Dec-10 16:00N 53°36' E 008°30'7 7.0 180 / 171018.4 4.7 1.4 6.4
2019-Dec-10 15:00N 53°30' E 008°36'1 2.9 170 / 41018.9 5.5 1.5 7.2
2019-Dec-10 14:29N 53°31' E 008°35'1 3.0
2019-Dec-10 14:00N 53°30' E 008°36'0 0.0 180 / 61020.1 5.9 1.5 7.3
2019-Dec-10 13:00N 53°30' E 008°36'1173.2 180 / 61021.0 5.7 0.8 7.2
2019-Dec-10 12:59N 53°31' E 008°35'0 0.0
2019-Dec-10 12:29N 53°31' E 008°35'1 3.0
2019-Dec-10 12:00N 53°30' E 008°36'1 2.9 190 / 61021.7 5.8 0.8 7.2
2019-Dec-10 11:29N 53°31' E 008°35'1 3.0
2019-Dec-10 11:00N 53°30' E 008°36'1 2.9 200 / 41022.2 4.9 1.0 7.2
2019-Dec-10 10:28N 53°31' E 008°35'1 3.1
2019-Dec-10 10:00N 53°30' E 008°36'1 3.1 1022.4 4.2 1.4 7.2
2019-Dec-10 09:31N 53°31' E 008°35'0 0.0
2019-Dec-10 09:00N 53°31' E 008°35'191.0
2019-Dec-10 09:00N 53°30' E 008°36'0 0.0 190 / 41021.9 3.6 0.9 7.2
2019-Dec-10 08:00N 53°30' E 008°36'0 0.0 220 / 41021.8 4.4 1.1 7.2
2019-Dec-10 07:00N 53°30' E 008°36'1 3.0 260 / 81021.0 4.2 0.9 7.2
2019-Dec-10 06:30N 53°31' E 008°35'1 2.9
2019-Dec-10 06:00N 53°30' E 008°36'0 0.0 250 / 61020.5 4.6 1.3 7.2
2019-Dec-10 05:00N 53°30' E 008°36'1 2.9 290 / 141019.8 6.4 0.9 7.2
2019-Dec-10 04:28N 53°31' E 008°35'1 3.1
2019-Dec-10 04:00N 53°30' E 008°36'1 2.9 300 / 81019.1 6.0 1.8 7.2
2019-Dec-10 03:29N 53°31' E 008°35'0 0.0
2019-Dec-10 03:00N 53°31' E 008°35'0 0.0
2019-Dec-10 02:00N 53°31' E 008°35'1223.8
2019-Dec-10 02:00N 53°30' E 008°36'0 0.0 310 / 161017.0 6.4 2.0 7.1
2019-Dec-10 01:00N 53°30' E 008°36'0 0.0 320 / 171015.8 6.0 1.4 7.1
2019-Dec-10 00:00N 53°30' E 008°36'0 0.0 300 / 161014.5 6.4 2.4 7.0
2019-Dec-09 23:00N 53°30' E 008°36'0 0.0 310 / 191012.9 6.1 2.1 7.0
2019-Dec-09 22:00N 53°30' E 008°36'1137.7 310 / 211011.6 6.9 1.6 7.1
2019-Dec-09 21:59N 53°31' E 008°35'1 1.5
2019-Dec-09 21:00N 53°30' E 008°36'1137.7 320 / 171010.2 6.7-0.1 7.1
2019-Dec-09 20:59N 53°31' E 008°35'0 0.0
2019-Dec-09 20:29N 53°31' E 008°35'1 3.1
2019-Dec-09 20:00N 53°30' E 008°36'1134.3 310 / 171008.6 6.7 0.6 7.1
2019-Dec-09 19:59N 53°31' E 008°35'1 1.5
2019-Dec-09 19:00N 53°30' E 008°36'1 1.5 310 / 191006.7 7.5 1.4 7.2
2019-Dec-09 18:00N 53°31' E 008°35'1145.2
2019-Dec-09 18:00N 53°30' E 008°36'0 0.0 320 / 121005.0 6.9 3.1 7.0
2019-Dec-09 17:00N 53°30' E 008°36'0 0.0 320 / 141003.0 7.7 2.7 7.2
2019-Dec-09 16:00N 53°30' E 008°36'0 0.0 330 / 101000.9 6.9 3.6 7.4
2019-Dec-09 15:00N 53°30' E 008°36'0 0.0 270 / 10998.9 6.8 4.8 7.3
2019-Dec-09 14:00N 53°30' E 008°36'0 0.0 250 / 8997.2 7.0 4.3 7.6
2019-Dec-09 13:00N 53°30' E 008°36'0 0.0 250 / 8996.1 7.1 4.0 7.6
2019-Dec-09 12:00N 53°30' E 008°36'0 0.0 220 / 6995.1 7.2 4.0 7.6
2019-Dec-09 11:00N 53°30' E 008°36'0 0.0 210 / 4994.6 7.2 4.0 7.6
2019-Dec-09 10:00N 53°30' E 008°36'0 0.0 200 / 6994.2 7.1 3.9 7.5
2019-Dec-09 09:00N 53°30' E 008°36'0 0.0 200 / 4993.8 7.0 3.7 7.6
2019-Dec-09 08:00N 53°30' E 008°36'1 1.5 200 / 4993.4 6.9 3.6 7.6
2019-Dec-09 07:00N 53°31' E 008°35'11784.3
2019-Dec-09 07:00N 53°30' E 008°36'0 0.0 200 / 8992.7 6.2 3.5 7.5
2019-Dec-09 06:00N 53°30' E 008°36'0 0.0 190 / 8992.5 5.9 3.2 7.5
2019-Dec-09 05:00N 53°30' E 008°36'1 2.9 200 / 8992.4 6.3 3.3 7.5
2019-Dec-09 04:28N 53°31' E 008°35'1 3.1
2019-Dec-09 04:00N 53°30' E 008°36'1 2.8 210 / 4992.4 6.3 3.4 7.5
2019-Dec-09 03:28N 53°31' E 008°35'1 3.2
2019-Dec-09 03:00N 53°30' E 008°36'0 0.0 200 / 6992.5 5.8 3.5 7.5
2019-Dec-09 02:00N 53°30' E 008°36'0 0.0 200 / 8992.6 5.9 3.4 7.4
2019-Dec-09 01:00N 53°30' E 008°36'0 0.0 210 / 6992.5 5.8 3.6 7.4
2019-Dec-09 00:00N 53°30' E 008°36'0 0.0 220 / 12992.4 6.5 3.0 7.3
2019-Dec-08 23:00N 53°30' E 008°36'1 3.1 210 / 6992.3 6.4 3.5 7.3
2019-Dec-08 22:31N 53°31' E 008°35'1 2.9
2019-Dec-08 22:00N 53°30' E 008°36'0 0.0 220 / 10992.5 7.1 3.8 7.3
2019-Dec-08 21:00N 53°30' E 008°36'1 2.9 220 / 10993.0 7.3 4.4 7.3
2019-Dec-08 20:29N 53°31' E 008°35'0 0.0
2019-Dec-08 20:00N 53°31' E 008°35'1488.2
2019-Dec-08 20:00N 53°30' E 008°36'0 0.0 210 / 8993.3 7.5 4.1 7.4
2019-Dec-08 19:00N 53°30' E 008°36'1 1.5 210 / 8993.8 7.1 4.4 7.2
2019-Dec-08 18:00N 53°31' E 008°35'1383.7
2019-Dec-08 18:00N 53°30' E 008°36'0 0.0 230 / 16994.2 8.0 4.6 7.2
2019-Dec-08 17:00N 53°30' E 008°36'1134.3 230 / 12994.2 8.6 5.3 7.2
2019-Dec-08 16:59N 53°31' E 008°35'1 1.5
2019-Dec-08 16:00N 53°30' E 008°36'0 0.0 250 / 14994.2 9.4 5.4 7.1
2019-Dec-08 15:00N 53°30' E 008°36'0 0.0 250 / 17994.0 9.0 5.9 7.3
2019-Dec-08 14:00N 53°30' E 008°36'1 1.5 240 / 16993.9 10.0 6.8 7.3
2019-Dec-08 13:00N 53°31' E 008°35'1214.8
2019-Dec-08 13:00N 53°30' E 008°36'0 0.0 240 / 17993.9 10.0 7.7 7.3
2019-Dec-08 12:00N 53°30' E 008°36'1 1.5 220 / 14993.9 9.8 8.0 7.4
2019-Dec-08 11:00N 53°31' E 008°35'1206.5
2019-Dec-08 11:00N 53°30' E 008°36'1 1.5 210 / 10994.4 9.2 7.9 7.3
2019-Dec-08 10:00N 53°31' E 008°35'1206.6
2019-Dec-08 10:00N 53°30' E 008°36'1 1.5 210 / 8995.2 9.0 7.3 7.3
2019-Dec-08 09:00N 53°31' E 008°35'1206.5
2019-Dec-08 09:00N 53°30' E 008°36'0 0.0 200 / 12995.8 8.6 6.7 7.3
2019-Dec-08 08:00N 53°30' E 008°36'0 0.0 200 / 16996.1 8.7 6.2 7.3
2019-Dec-08 07:00N 53°30' E 008°36'0 0.0 210 / 8997.7 9.1 5.0 7.2
2019-Dec-08 06:00N 53°30' E 008°36'0 0.0 210 / 10998.7 9.0 4.9 7.3
2019-Dec-08 05:00N 53°30' E 008°36'0 0.0 200 / 8999.6 9.0 5.3 7.3
2019-Dec-08 04:00N 53°30' E 008°36'1 2.9 210 / 81001.7 9.2 5.5 7.4
2019-Dec-08 03:29N 53°31' E 008°35'1 3.1
2019-Dec-08 03:00N 53°30' E 008°36'124.0 190 / 101003.0 8.7 5.5 7.5
2019-Dec-08 02:56N 53°31' E 008°35'0 0.0
2019-Dec-08 02:29N 53°31' E 008°35'1 3.1
2019-Dec-08 02:00N 53°30' E 008°36'1 3.1 190 / 121004.2 8.2 4.8 7.5
2019-Dec-08 01:30N 53°31' E 008°35'1 2.9
2019-Dec-08 01:00N 53°30' E 008°36'0 0.0 200 / 81005.7 8.2 4.7 7.6
2019-Dec-08 00:00N 53°30' E 008°36'1114.3 190 / 61007.0 8.3 5.2 7.4
2019-Dec-07 23:59N 53°31' E 008°35'0 0.0
2019-Dec-07 23:29N 53°31' E 008°35'1 3.1
2019-Dec-07 23:00N 53°30' E 008°36'0 0.0 210 / 61008.0 8.4 5.7 7.5
2019-Dec-07 22:00N 53°30' E 008°36'1 2.7 210 / 61008.6 8.6 6.4 7.3
2019-Dec-07 21:26N 53°31' E 008°35'1 3.4
2019-Dec-07 21:00N 53°30' E 008°36'1 2.9 230 / 101008.9 8.5 6.3 7.5
2019-Dec-07 20:29N 53°31' E 008°35'1 3.1
2019-Dec-07 20:00N 53°30' E 008°36'0 0.0 230 / 101009.3 8.6 6.9 7.5
2019-Dec-07 19:00N 53°30' E 008°36'0 0.0 230 / 101009.2 8.6 6.5 7.5
2019-Dec-07 18:00N 53°30' E 008°36'0 0.0 240 / 121009.5 8.6 6.7 7.4
2019-Dec-07 17:00N 53°30' E 008°36'0 0.0 250 / 121009.3 8.7 6.9 7.4
2019-Dec-07 16:00N 53°30' E 008°36'1 2.7 250 / 81008.9 8.5 6.8 7.5
2019-Dec-07 15:26N 53°31' E 008°35'1 3.4
2019-Dec-07 15:00N 53°30' E 008°36'1 2.9 250 / 81008.4 8.8 6.8 7.4
2019-Dec-07 14:29N 53°31' E 008°35'1 3.1
2019-Dec-07 14:00N 53°30' E 008°36'1109.6 260 / 121007.8 9.1 6.2 7.4
2019-Dec-07 13:59N 53°31' E 008°35'1 1.5
2019-Dec-07 13:00N 53°30' E 008°36'0 0.0 270 / 141007.7 9.1 6.6 7.2
2019-Dec-07 12:00N 53°30' E 008°36'0 0.0 260 / 141006.9 9.0 6.6 7.3
2019-Dec-07 11:00N 53°30' E 008°36'1 2.9 260 / 141006.5 8.8 7.0 7.3
2019-Dec-07 10:29N 53°31' E 008°35'1 3.1
2019-Dec-07 10:00N 53°30' E 008°36'1 2.8 260 / 121006.4 8.8 7.0 7.3
2019-Dec-07 09:28N 53°31' E 008°35'1 3.1
2019-Dec-07 09:00N 53°30' E 008°36'1 2.8 260 / 141005.7 8.5 7.0 7.3
2019-Dec-07 08:28N 53°31' E 008°35'1 3.1
2019-Dec-07 08:00N 53°30' E 008°36'1 1.5 250 / 121004.8 8.8 7.0 7.3
2019-Dec-07 07:00N 53°31' E 008°35'1141.3
2019-Dec-07 07:00N 53°30' E 008°36'1 2.9 260 / 121003.7 8.6 7.1 7.2
2019-Dec-07 06:29N 53°31' E 008°35'1 3.0
2019-Dec-07 06:00N 53°30' E 008°36'0 0.0 260 / 121002.7 8.7 6.9 7.1
2019-Dec-07 05:00N 53°30' E 008°36'1 2.9 250 / 141001.7 8.5 6.8 7.2
2019-Dec-07 04:29N 53°31' E 008°35'1 3.0
2019-Dec-07 04:00N 53°30' E 008°36'0 0.0 260 / 141000.8 8.6 7.0 7.2
2019-Dec-07 03:00N 53°30' E 008°36'1199.0 250 / 12999.6 8.6 7.4 7.2
2019-Dec-07 02:59N 53°31' E 008°35'1 1.5
2019-Dec-07 02:00N 53°30' E 008°36'0 0.0 240 / 12998.9 8.0 7.0 7.2
2019-Dec-07 01:00N 53°30' E 008°36'1162.8 230 / 12998.4 8.0 6.8 7.3
2019-Dec-07 00:59N 53°31' E 008°35'1 1.5
2019-Dec-07 00:00N 53°30' E 008°36'1153.5 210 / 8998.4 8.0 6.7 7.3
2019-Dec-06 23:59N 53°31' E 008°35'0 0.0
2019-Dec-06 23:29N 53°31' E 008°35'1 3.0
2019-Dec-06 23:00N 53°30' E 008°36'0 0.0 210 / 8998.4 8.1 6.8 7.3
2019-Dec-06 22:00N 53°30' E 008°36'1 2.9 200 / 10998.8 7.9 6.6 7.4
2019-Dec-06 21:29N 53°31' E 008°35'1 3.0
2019-Dec-06 21:00N 53°30' E 008°36'1162.8 190 / 8999.1 7.7 6.6 7.4
2019-Dec-06 20:59N 53°31' E 008°35'1 1.5
2019-Dec-06 20:00N 53°30' E 008°36'1167.8 200 / 8999.6 7.6 6.4 7.5
2019-Dec-06 19:59N 53°31' E 008°35'0 0.0
2019-Dec-06 19:29N 53°31' E 008°35'1 3.0
2019-Dec-06 19:00N 53°30' E 008°36'0 0.0 200 / 61000.1 7.2 6.2 7.4
2019-Dec-06 18:00N 53°30' E 008°36'1158.0 200 / 81000.5 6.9 5.9 7.4
2019-Dec-06 17:59N 53°31' E 008°35'1 1.5
2019-Dec-06 17:00N 53°30' E 008°36'1162.8 190 / 121000.8 6.2 5.4 7.5
2019-Dec-06 16:59N 53°31' E 008°35'1 1.5
2019-Dec-06 16:00N 53°30' E 008°36'1162.8 190 / 121001.4 5.9 5.1 7.4
2019-Dec-06 15:59N 53°31' E 008°35'1 1.5
2019-Dec-06 15:00N 53°30' E 008°36'1 2.9 200 / 81002.0 5.9 5.0 7.5
2019-Dec-06 14:29N 53°31' E 008°35'1 3.0
2019-Dec-06 14:00N 53°30' E 008°36'1158.0 190 / 141002.5 5.7 4.8 7.4
2019-Dec-06 13:59N 53°31' E 008°35'1 1.5
2019-Dec-06 13:00N 53°30' E 008°36'1157.9 200 / 121003.4 5.8 4.8 7.2
2019-Dec-06 12:59N 53°31' E 008°35'0 0.0
2019-Dec-06 12:29N 53°31' E 008°35'1 3.0
2019-Dec-06 12:00N 53°30' E 008°36'1158.0 200 / 121004.5 5.6 4.5 7.2
2019-Dec-06 11:59N 53°31' E 008°35'1 1.5
2019-Dec-06 11:00N 53°30' E 008°36'1167.9 200 / 101005.3 5.6 4.3 7.4
2019-Dec-06 10:59N 53°31' E 008°35'1 1.5
2019-Dec-06 10:00N 53°30' E 008°36'0 0.0 210 / 61006.2 5.9 4.4 7.4
2019-Dec-06 09:00N 53°30' E 008°36'0 0.0 210 / 61006.1 5.5 4.6 7.3
2019-Dec-06 08:00N 53°30' E 008°36'0 0.0 220 / 81006.5 5.5 4.4 7.3
2019-Dec-06 07:00N 53°30' E 008°36'1158.0 210 / 101006.6 5.5 4.4 7.3
2019-Dec-06 06:59N 53°31' E 008°35'0 0.0
2019-Dec-06 06:29N 53°31' E 008°35'1 3.0
2019-Dec-06 06:00N 53°30' E 008°36'0 0.0 210 / 101006.8 5.6 4.3 7.3
2019-Dec-06 05:00N 53°30' E 008°36'1 3.1 210 / 101006.9 5.8 4.3 7.3
2019-Dec-06 04:30N 53°31' E 008°35'1 2.9
2019-Dec-06 04:00N 53°30' E 008°36'0 0.0 210 / 101007.0 5.7 4.0 7.3
2019-Dec-06 03:00N 53°30' E 008°36'0 0.0 210 / 81007.3 5.6 3.7 7.4
2019-Dec-06 02:00N 53°30' E 008°36'147.1 200 / 81007.9 5.0 3.1 7.5
2019-Dec-06 01:58N 53°31' E 008°35'0 0.0
2019-Dec-06 01:28N 53°31' E 008°35'1 3.2
2019-Dec-06 01:00N 53°30' E 008°36'0 0.0 200 / 101008.1 4.5 2.8 7.4
2019-Dec-06 00:00N 53°30' E 008°36'0 0.0 190 / 141009.2 4.0 2.3 7.5
2019-Dec-05 23:00N 53°30' E 008°36'1 2.8 200 / 101010.3 3.7 2.0 7.5
2019-Dec-05 22:28N 53°31' E 008°35'1 3.2
2019-Dec-05 22:00N 53°30' E 008°36'0 0.0 190 / 141011.4 3.2 2.0 7.6
2019-Dec-05 21:00N 53°30' E 008°36'0 0.0 180 / 121012.3 2.7 1.9 7.5
2019-Dec-05 20:00N 53°30' E 008°36'1 3.0 180 / 121013.4 2.5 1.5 7.7
2019-Dec-05 19:30N 53°31' E 008°35'1 2.9
2019-Dec-05 19:00N 53°30' E 008°36'1 2.8 180 / 121014.1 2.5 1.4 7.7
2019-Dec-05 18:28N 53°31' E 008°35'1 3.2
2019-Dec-05 18:00N 53°30' E 008°36'1 3.1 180 / 101014.7 2.4 1.5 7.7
2019-Dec-05 17:30N 53°31' E 008°35'1 2.9
2019-Dec-05 17:00N 53°30' E 008°36'1 2.8 190 / 101015.3 2.4 1.8 7.8
2019-Dec-05 16:28N 53°31' E 008°35'1 3.2
2019-Dec-05 16:00N 53°30' E 008°36'1 2.8 190 / 81016.0 2.2 1.6 7.9
2019-Dec-05 15:28N 53°31' E 008°35'1 3.2
2019-Dec-05 15:00N 53°30' E 008°36'0 0.0 210 / 61016.6 2.8 1.8 7.8
2019-Dec-05 14:00N 53°30' E 008°36'1 3.0 200 / 41016.7 4.3 2.2 8.0
2019-Dec-05 13:30N 53°31' E 008°35'0 0.0
2019-Dec-05 13:00N 53°31' E 008°35'11342.3
2019-Dec-05 13:00N 53°30' E 008°36'0 0.0 180 / 81017.4 4.2 2.1 8.0
2019-Dec-05 12:00N 53°30' E 008°36'0 0.0 170 / 41017.8 3.6 1.3 7.9
2019-Dec-05 11:00N 53°30' E 008°36'0 0.0 180 / 81018.1 2.5 0.6 7.8
2019-Dec-05 10:00N 53°30' E 008°36'1 1.5 1018.4 1.7 0.4 7.9
2019-Dec-05 09:00N 53°31' E 008°35'1767.3
2019-Dec-05 09:00N 53°30' E 008°36'0 0.0 170 / 61018.1 0.5-0.3 7.8
2019-Dec-05 08:00N 53°30' E 008°36'0 0.0 170 / 41018.8 0.5-0.2 7.8
2019-Dec-05 07:00N 53°30' E 008°36'1 1.5 1018.7 0.8 0.1 7.7
2019-Dec-05 06:00N 53°31' E 008°35'1895.2
2019-Dec-05 06:00N 53°30' E 008°36'1 3.0 180 / 41019.1 1.0 0.2 7.7
2019-Dec-05 05:30N 53°31' E 008°35'0 0.0
2019-Dec-05 05:00N 53°31' E 008°35'1895.4
2019-Dec-05 05:00N 53°30' E 008°36'0 0.0 1018.9 1.0 0.3 7.8
2019-Dec-05 04:00N 53°30' E 008°36'0 0.0 180 / 41018.8 1.1 0.3 7.7
2019-Dec-05 03:00N 53°30' E 008°36'0 0.0 170 / 41018.7 1.8 1.0 7.7
2019-Dec-05 02:00N 53°30' E 008°36'1124.9 160 / 41019.5 1.7 0.8 7.7
2019-Dec-05 01:59N 53°31' E 008°35'1 1.5
2019-Dec-05 01:00N 53°30' E 008°36'1127.9 160 / 41019.5 1.7 0.7 7.7
2019-Dec-05 00:59N 53°31' E 008°35'1 1.5
2019-Dec-05 00:00N 53°30' E 008°36'0 0.0 160 / 41020.0 2.1 1.0 7.3
2019-Dec-04 23:00N 53°30' E 008°36'0 0.0 150 / 41020.3 2.1 1.0 7.4
2019-Dec-04 22:00N 53°30' E 008°36'0 0.0 170 / 41020.7 2.4 1.1 7.5
2019-Dec-04 21:00N 53°30' E 008°36'0 0.0 150 / 41020.8 2.9 1.5 7.4
2019-Dec-04 20:00N 53°30' E 008°36'0 0.0 160 / 41021.0 3.4 2.0 7.4
2019-Dec-04 19:00N 53°30' E 008°36'150.2 160 / 41020.8 4.0 2.6 7.9
2019-Dec-04 18:58N 53°31' E 008°35'1 1.5
2019-Dec-04 18:00N 53°30' E 008°36'0 0.0 170 / 41021.0 4.5 3.0 7.6
2019-Dec-04 17:00N 53°30' E 008°36'150.7 180 / 61021.0 5.3 3.7 7.3
2019-Dec-04 16:58N 53°31' E 008°35'1 1.5
2019-Dec-04 16:00N 53°30' E 008°36'0 0.0 190 / 61021.0 6.2 4.5 6.9
2019-Dec-04 15:00N 53°30' E 008°36'0 0.0 210 / 81021.4 6.2 4.3 6.6
2019-Dec-04 14:00N 53°30' E 008°36'1414.0 210 / 81021.1 6.8 4.6 6.7
2019-Dec-04 13:00N 53°42' E 008°24'4 3.6 220 / 101021.2 5.4 4.5 6.4
2019-Dec-04 12:00N 53°43' E 008°18'4335.6
2019-Dec-04 12:00N 53°42' E 008°12'9 9.3 230 / 161021.5 4.3 4.0 6.6
2019-Dec-04 11:00N 53°48' E 008°00'9 9.3 220 / 161021.6 4.7 4.2 8.7
2019-Dec-04 10:00N 53°54' E 007°48'1 2.3 230 / 171021.3 5.8 5.3 9.6
2019-Dec-04 09:30N 53°53' E 007°46'1018.7
2019-Dec-04 09:00N 53°54' E 007°30'1110.6 230 / 171021.4 6.1 5.5 9.5
2019-Dec-04 08:00N 53°54' E 007°12'7 7.1 230 / 171020.8 6.4 5.8 9.1
2019-Dec-04 07:00N 53°54' E 007°00'3 5.4 230 / 161020.8 6.8 6.0 8.7
2019-Dec-04 06:30N 53°51' E 007°00'4 8.4
2019-Dec-04 06:00N 53°54' E 007°06'6 6.0 230 / 171020.3 7.1 6.1 9.1
2019-Dec-04 05:00N 54°00' E 007°06'0 0.0 220 / 191020.3 7.1 6.1 9.5
2019-Dec-04 04:00N 54°00' E 007°06'0 0.0 230 / 191020.2 7.5 6.5 9.5
2019-Dec-04 03:00N 54°00' E 007°06'0 0.0 220 / 171020.6 7.6 6.4 9.5
2019-Dec-04 02:00N 54°00' E 007°06'1 5.5 220 / 191021.3 7.6 6.4 9.3
2019-Dec-04 01:48N 53°59' E 007°08'1 1.3
2019-Dec-04 01:00N 54°00' E 007°06'0 0.0 230 / 191021.6 7.7 6.6 9.4
2019-Dec-04 00:00N 54°00' E 007°06'0 0.0 220 / 211021.7 7.5 6.5 9.5
2019-Dec-03 23:00N 54°00' E 007°06'0 0.0 220 / 211022.0 7.4 6.3 9.4
2019-Dec-03 22:00N 54°00' E 007°06'0 0.0 220 / 231022.1 7.2 5.7 9.5
2019-Dec-03 21:00N 54°00' E 007°06'7 7.0 220 / 211022.5 7.6 6.0 9.5
2019-Dec-03 20:00N 53°54' E 007°12'2 5.4 230 / 211023.0 7.6 5.8 9.4
2019-Dec-03 19:40N 53°54' E 007°15'912.9
2019-Dec-03 19:00N 53°54' E 007°00'7 7.1 220 / 171023.3 7.3 5.7 8.8
2019-Dec-03 18:00N 53°54' E 007°12'4 3.5 230 / 211022.9 7.9 6.1 9.0
2019-Dec-03 17:00N 53°54' E 007°06'429.2 230 / 171023.3 8.0 6.3 9.0
2019-Dec-03 16:52N 53°53' E 007°12'4 4.1
2019-Dec-03 16:00N 53°54' E 007°06'4 3.5 230 / 191023.3 8.2 6.4 8.9
2019-Dec-03 15:00N 53°54' E 007°12'235.0 230 / 211023.4 7.9 6.2 9.3
2019-Dec-03 14:57N 53°53' E 007°11'7 6.8
2019-Dec-03 14:00N 53°54' E 007°00'3 6.4 230 / 211023.8 7.6 5.9 8.9
2019-Dec-03 13:30N 53°51' E 007°01'4 7.9
2019-Dec-03 13:00N 53°54' E 007°06'4 3.5 230 / 211024.1 7.4 5.5 9.1
2019-Dec-03 12:00N 53°54' E 007°12'2 4.2 230 / 211024.7 7.5 5.7 9.3
2019-Dec-03 11:29N 53°52' E 007°10'714.9
2019-Dec-03 11:00N 53°48' E 007°00'9 9.3 220 / 211025.0 7.1 5.6 8.8
2019-Dec-03 10:00N 53°54' E 007°12'2 2.2 230 / 211025.1 7.4 5.5 9.3
2019-Dec-03 09:07N 53°52' E 007°12'1 8.3
2019-Dec-03 09:00N 53°52' E 007°10'3201.1
2019-Dec-03 09:00N 53°54' E 007°06'3 7.2 240 / 161025.8 8.0 6.1 8.8
2019-Dec-03 08:30N 53°51' E 007°03'3 6.8
2019-Dec-03 08:00N 53°54' E 007°06'3 5.7 240 / 161025.8 8.4 6.5 9.0
2019-Dec-03 07:30N 53°51' E 007°08'612.5
2019-Dec-03 07:00N 53°54' E 007°18'1212.2 240 / 161025.6 8.8 6.2 9.3
2019-Dec-03 06:00N 53°48' E 007°36'2 4.5 260 / 141025.5 8.4 6.4 8.6
2019-Dec-03 05:30N 53°50' E 007°38'3 6.2
2019-Dec-03 05:00N 53°48' E 007°42'0 0.0 250 / 101025.8 8.1 7.0 8.4
2019-Dec-03 04:00N 53°48' E 007°42'0 0.0 230 / 121025.7 7.6 6.2 8.4
2019-Dec-03 03:00N 53°48' E 007°42'0 0.0 240 / 121025.5 7.6 6.4 8.4
2019-Dec-03 02:00N 53°48' E 007°42'0 0.0 270 / 101025.7 8.0 6.2 8.5
2019-Dec-03 01:00N 53°48' E 007°42'0 0.0 290 / 101025.7 8.8 5.6 8.4
2019-Dec-03 00:00N 53°48' E 007°42'0 0.0 300 / 121025.6 8.7 5.2 7.8
2019-Dec-02 23:00N 53°48' E 007°42'0 0.0 300 / 141025.4 8.8 4.8 8.1
2019-Dec-02 22:00N 53°48' E 007°42'0 0.0 300 / 141025.3 8.6 4.5 7.4
2019-Dec-02 21:00N 53°48' E 007°42'9 9.3 300 / 101025.1 8.6 4.6 7.4
2019-Dec-02 20:00N 53°54' E 007°54'2 4.5 330 / 161024.5 8.8 3.7 9.8
2019-Dec-02 19:30N 53°56' E 007°56'611.2
2019-Dec-02 19:00N 54°00' E 008°02'6430.8
2019-Dec-02 19:00N 54°06' E 008°06'1110.6 360 / 121024.1 7.9 4.3 9.0
2019-Dec-02 18:00N 54°06' E 008°24'1414.1 350 / 101023.3 6.9 3.3 7.7
2019-Dec-02 17:00N 54°06' E 008°48'4 3.5 330 / 101022.5 6.1 3.3 6.5
2019-Dec-02 16:00N 54°06' E 008°54'0 0.0 320 / 121022.4 6.0 2.6 6.5
2019-Dec-02 15:00N 54°06' E 008°54'0 0.0 320 / 101021.7 6.1 2.8 6.4
2019-Dec-02 14:00N 54°06' E 008°54'0 0.0 310 / 161021.3 6.2 3.0 6.1
2019-Dec-02 13:00N 54°06' E 008°54'0 0.0 320 / 141021.2 6.8 3.0 6.1
2019-Dec-02 12:00N 54°06' E 008°54'0 0.0 300 / 171021.1 6.0 2.5 5.9
2019-Dec-02 11:00N 54°06' E 008°54'0 0.0 310 / 81021.0 6.1 3.4 5.9
2019-Dec-02 10:00N 54°06' E 008°54'0 0.0 310 / 121020.6 5.8 3.6 5.8
2019-Dec-02 09:00N 54°06' E 008°54'0 0.0 300 / 121019.9 6.0 2.9 5.7
2019-Dec-02 08:00N 54°06' E 008°54'0 0.0 300 / 101019.3 5.8 3.6 5.9
2019-Dec-02 07:00N 54°06' E 008°54'0 0.0 290 / 121019.0 5.9 3.2 6.1
2019-Dec-02 06:00N 54°06' E 008°54'0 0.0 320 / 101018.9 6.2 3.1 6.3
2019-Dec-02 05:00N 54°06' E 008°54'0 0.0 300 / 121018.8 6.4 3.9 6.5
2019-Dec-02 04:00N 54°06' E 008°54'0 0.0 280 / 121018.8 6.4 3.7 6.5
2019-Dec-02 03:00N 54°06' E 008°54'0 0.0 270 / 121018.9 6.1 3.0 6.5
2019-Dec-02 02:00N 54°06' E 008°54'0 0.0 280 / 121019.0 6.0 3.8 6.4
2019-Dec-02 01:00N 54°06' E 008°54'0 0.0 260 / 101019.3 5.4 2.8 6.4
2019-Dec-02 00:00N 54°06' E 008°54'0 0.0 220 / 101019.5 5.0 2.6 6.2
2019-Dec-01 23:00N 54°06' E 008°54'0 0.0 260 / 101020.1 5.4 2.4 6.2
2019-Dec-01 22:00N 54°06' E 008°54'0 0.0 230 / 61020.4 5.5 3.0 6.3
2019-Dec-01 21:00N 54°06' E 008°54'0 0.0 280 / 81020.6 5.7 2.9 6.3
2019-Dec-01 20:00N 54°06' E 008°54'0 0.0 250 / 61020.4 5.4 3.1 6.1
2019-Dec-01 19:00N 54°06' E 008°54'0 0.0 270 / 81020.5 5.8 3.5 6.2
2019-Dec-01 18:00N 54°06' E 008°54'0 0.0 260 / 81020.6 6.0 2.8 6.5
2019-Dec-01 17:00N 54°06' E 008°54'7 7.0 290 / 81020.5 6.1 3.2 6.5
2019-Dec-01 16:00N 54°06' E 008°42'0 0.0 250 / 81021.0 6.3 2.5 7.0
2019-Dec-01 15:00N 54°06' E 008°42'0 0.0 260 / 81021.0 6.6 2.5 7.1
2019-Dec-01 14:00N 54°06' E 008°42'7 7.0 250 / 101021.2 6.4 3.0 7.1
2019-Dec-01 13:00N 54°06' E 008°54'0 0.0 240 / 81021.3 7.2 2.3 6.9
2019-Dec-01 12:00N 54°06' E 008°54'0 0.0 1021.6 5.5 4.3 6.9
2019-Dec-01 11:00N 54°06' E 008°54'   110 / 41022.2 4.1 2.9 7.2

Dump ship's entire track history